createdAt,value
2022-12-25T00:00:24.974Z,85.04
2022-12-25T00:02:53.387Z,84.41
2022-12-25T00:05:22.101Z,84.62
2022-12-25T00:07:50.453Z,84.56
2022-12-25T00:10:18.976Z,84.13
2022-12-25T00:12:47.285Z,84.27
2022-12-25T00:15:15.624Z,83.97
2022-12-25T00:17:43.940Z,83.92
2022-12-25T00:20:12.393Z,83.69
2022-12-25T00:22:40.686Z,83.51
2022-12-25T00:25:09.362Z,83.33
2022-12-25T00:27:38.808Z,83.41
2022-12-25T00:30:08.857Z,80.69
2022-12-25T00:32:38.456Z,80.58
2022-12-25T00:35:07.356Z,79.73
2022-12-25T00:37:35.664Z,80.32
2022-12-25T00:40:03.964Z,79.50
2022-12-25T00:42:32.283Z,79.39
2022-12-25T00:45:02.291Z,81.76
2022-12-25T00:47:31.595Z,82.03
2022-12-25T00:49:59.913Z,79.44
2022-12-25T00:52:28.215Z,80.35
2022-12-25T00:54:56.522Z,78.69
2022-12-25T00:57:24.856Z,81.38
2022-12-25T00:59:53.279Z,79.23
2022-12-25T01:02:24.664Z,80.87
2022-12-25T01:04:57.905Z,79.00
2022-12-25T01:07:27.788Z,79.59
2022-12-25T01:10:14.412Z,79.14
2022-12-25T01:12:44.182Z,78.89
2022-12-25T01:15:13.877Z,81.23
2022-12-25T01:17:43.494Z,79.55
2022-12-25T01:20:13.468Z,80.83
2022-12-25T01:22:41.989Z,80.46
2022-12-25T01:25:11.568Z,78.85
2022-12-25T01:27:41.901Z,78.22
2022-12-25T01:30:10.851Z,77.95
2022-12-25T01:32:39.352Z,78.54
2022-12-25T01:35:08.071Z,77.23
2022-12-25T01:37:36.362Z,78.28
2022-12-25T01:40:05.513Z,77.45
2022-12-25T01:42:33.827Z,77.55
2022-12-25T01:45:40.064Z,77.77
2022-12-25T01:48:15.844Z,76.77
2022-12-25T01:50:48.873Z,76.26
2022-12-25T01:53:17.387Z,75.83
2022-12-25T01:55:47.161Z,75.87
2022-12-25T01:58:16.499Z,76.29
2022-12-25T02:00:45.381Z,75.30
2022-12-25T02:03:15.325Z,75.29
2022-12-25T02:05:43.833Z,75.22
2022-12-25T02:08:16.088Z,74.42
2022-12-25T02:10:45.731Z,74.37
2022-12-25T02:13:19.492Z,73.25
2022-12-25T02:16:14.425Z,72.37
2022-12-25T02:18:42.751Z,72.17
2022-12-25T02:21:11.000Z,72.67
2022-12-25T02:24:11.517Z,72.06
2022-12-25T02:26:57.766Z,72.18
2022-12-25T02:29:49.371Z,70.61
2022-12-25T02:32:25.805Z,71.97
2022-12-25T02:35:13.948Z,71.69
2022-12-25T02:37:45.389Z,71.39
2022-12-25T02:40:27.469Z,70.35
2022-12-25T02:43:18.981Z,70.32
2022-12-25T02:46:14.592Z,70.04
2022-12-25T02:49:16.314Z,69.73
2022-12-25T02:52:18.639Z,69.49
2022-12-25T02:55:21.542Z,68.07
2022-12-25T02:58:16.929Z,67.27
2022-12-25T03:01:08.181Z,68.63
2022-12-25T03:04:00.156Z,68.15
2022-12-25T03:06:45.166Z,68.31
2022-12-25T03:09:46.403Z,65.31
2022-12-25T03:12:25.354Z,66.32
2022-12-25T03:15:12.089Z,67.04
2022-12-25T03:17:40.507Z,66.39
2022-12-25T03:20:45.140Z,65.60
2022-12-25T03:23:34.993Z,65.68
2022-12-25T03:26:21.636Z,66.02
2022-12-25T03:28:49.929Z,65.81
2022-12-25T03:31:21.336Z,65.34
2022-12-25T03:34:35.487Z,66.22
2022-12-25T03:37:46.810Z,64.53
2022-12-25T03:41:16.971Z,64.71
2022-12-25T03:44:42.893Z,64.63
2022-12-25T03:47:44.395Z,64.53
2022-12-25T03:50:49.620Z,64.63
2022-12-25T03:53:44.046Z,64.03
2022-12-25T03:56:32.002Z,63.29
2022-12-25T03:59:23.611Z,61.57
2022-12-25T04:02:31.453Z,62.79
2022-12-25T04:05:18.045Z,63.00
2022-12-25T04:08:04.842Z,62.04
2022-12-25T04:10:51.727Z,60.64
2022-12-25T04:13:38.344Z,62.05
2022-12-25T04:16:25.326Z,61.55
2022-12-25T04:19:11.862Z,60.22
2022-12-25T04:21:58.517Z,60.74
2022-12-25T04:24:45.184Z,60.99
2022-12-25T04:27:31.653Z,58.43
2022-12-25T04:30:18.213Z,58.66
2022-12-25T04:33:04.781Z,60.94
2022-12-25T04:35:51.333Z,59.41
2022-12-25T04:38:21.834Z,60.06
2022-12-25T04:40:50.143Z,58.15
2022-12-25T04:43:18.497Z,57.97
2022-12-25T04:45:54.595Z,57.18
2022-12-25T04:48:23.597Z,57.64
2022-12-25T04:50:51.913Z,56.17
2022-12-25T04:53:20.535Z,57.77
2022-12-25T04:55:48.866Z,58.07
2022-12-25T04:58:17.160Z,55.72
2022-12-25T05:00:45.535Z,57.22
2022-12-25T05:03:13.950Z,58.04
2022-12-25T05:05:42.424Z,57.10
2022-12-25T05:08:10.790Z,57.59
2022-12-25T05:10:41.764Z,56.77
2022-12-25T05:13:10.106Z,56.93
2022-12-25T05:15:41.570Z,57.68
2022-12-25T05:18:09.973Z,57.34
2022-12-25T05:20:40.412Z,55.97
2022-12-25T05:23:12.913Z,56.19
2022-12-25T05:25:41.989Z,55.41
2022-12-25T05:28:10.732Z,54.68
2022-12-25T05:30:39.051Z,55.99
2022-12-25T05:33:07.741Z,53.76
2022-12-25T05:35:41.133Z,54.65
2022-12-25T05:38:10.046Z,55.82
2022-12-25T05:40:41.827Z,54.68
2022-12-25T05:43:10.373Z,55.22
2022-12-25T05:45:38.727Z,53.65
2022-12-25T05:48:07.257Z,53.93
2022-12-25T05:50:38.573Z,53.32
2022-12-25T05:53:11.267Z,54.09
2022-12-25T05:55:41.968Z,53.86
2022-12-25T05:58:10.896Z,54.35
2022-12-25T06:00:39.619Z,51.21
2022-12-25T06:03:08.133Z,52.51
2022-12-25T06:05:40.517Z,53.76
2022-12-25T06:08:09.023Z,53.99
2022-12-25T06:10:37.782Z,51.88
2022-12-25T06:13:06.223Z,52.32
2022-12-25T06:15:34.946Z,50.21
2022-12-25T06:18:03.299Z,51.11
2022-12-25T06:20:31.675Z,52.70
2022-12-25T06:23:00.177Z,52.81
2022-12-25T06:25:28.593Z,51.92
2022-12-25T06:27:56.917Z,50.44
2022-12-25T06:30:25.332Z,50.70
2022-12-25T06:32:53.692Z,52.04
2022-12-25T06:35:22.001Z,49.69
2022-12-25T06:37:50.310Z,50.32
2022-12-25T06:40:18.904Z,49.39
2022-12-25T06:42:47.199Z,48.88
2022-12-25T06:45:15.543Z,50.10
2022-12-25T06:47:44.003Z,48.79
2022-12-25T06:50:12.390Z,52.48
2022-12-25T06:52:40.696Z,51.61
2022-12-25T06:55:09.420Z,48.80
2022-12-25T06:57:37.724Z,47.84
2022-12-25T07:00:07.707Z,49.51
2022-12-25T07:02:39.448Z,50.05
2022-12-25T07:05:08.227Z,48.67
2022-12-25T07:07:36.518Z,50.44
2022-12-25T07:10:04.938Z,48.42
2022-12-25T07:12:33.340Z,47.88
2022-12-25T07:15:01.715Z,48.33
2022-12-25T07:17:30.060Z,47.45
2022-12-25T07:19:58.596Z,49.23
2022-12-25T07:22:26.939Z,49.17
2022-12-25T07:24:55.235Z,47.55
2022-12-25T07:27:23.732Z,47.22
2022-12-25T07:29:52.033Z,50.29
2022-12-25T07:32:20.349Z,47.58
2022-12-25T07:34:48.705Z,48.87
2022-12-25T07:37:17.036Z,49.25
2022-12-25T07:39:45.348Z,46.84
2022-12-25T07:42:13.664Z,48.04
2022-12-25T07:44:41.977Z,46.75
2022-12-25T07:47:10.288Z,46.98
2022-12-25T07:49:38.594Z,48.54
2022-12-25T07:52:06.905Z,47.47
2022-12-25T07:54:35.191Z,49.26
2022-12-25T07:57:03.478Z,46.06
2022-12-25T07:59:31.783Z,47.90
2022-12-25T08:02:00.254Z,46.68
2022-12-25T08:04:28.662Z,48.13
2022-12-25T08:06:57.006Z,48.34
2022-12-25T08:09:25.406Z,48.65
2022-12-25T08:11:53.689Z,46.97
2022-12-25T08:14:22.034Z,46.73
2022-12-25T08:16:50.366Z,47.03
2022-12-25T08:19:18.771Z,46.90
2022-12-25T08:21:47.088Z,46.16
2022-12-25T08:24:15.441Z,45.77
2022-12-25T08:26:43.810Z,46.65
2022-12-25T08:29:12.150Z,46.30
2022-12-25T08:31:46.094Z,47.11
2022-12-25T08:34:15.511Z,47.75
2022-12-25T08:36:43.888Z,46.30
2022-12-25T08:39:12.201Z,46.74
2022-12-25T08:41:41.204Z,46.83
2022-12-25T08:44:09.708Z,47.04
2022-12-25T08:46:38.172Z,45.80
2022-12-25T08:49:06.839Z,48.50
2022-12-25T08:51:35.271Z,46.76
2022-12-25T08:54:03.575Z,48.58
2022-12-25T08:56:32.522Z,46.79
2022-12-25T08:59:00.827Z,48.57
2022-12-25T09:01:29.258Z,46.63
2022-12-25T09:03:57.671Z,47.31
2022-12-25T09:06:25.984Z,47.67
2022-12-25T09:08:54.318Z,48.94
2022-12-25T09:11:23.302Z,48.81
2022-12-25T09:13:51.734Z,47.43
2022-12-25T09:16:23.085Z,47.70
2022-12-25T09:18:51.901Z,46.91
2022-12-25T09:21:20.678Z,47.05
2022-12-25T09:23:49.290Z,47.67
2022-12-25T09:26:19.394Z,46.92
2022-12-25T09:28:51.998Z,47.96
2022-12-25T09:31:22.602Z,48.67
2022-12-25T09:33:52.370Z,47.15
2022-12-25T09:36:24.113Z,47.31
2022-12-25T09:38:53.608Z,47.40
2022-12-25T09:41:24.609Z,47.93
2022-12-25T09:44:11.572Z,47.39
2022-12-25T09:46:52.367Z,46.87
2022-12-25T09:49:28.449Z,48.27
2022-12-25T09:52:04.899Z,47.64
2022-12-25T09:57:34.806Z,49.12
2022-12-25T10:00:03.261Z,49.66
2022-12-25T10:03:12.042Z,49.42
2022-12-25T10:05:53.619Z,49.68
2022-12-25T10:08:43.052Z,50.51
2022-12-25T10:11:41.808Z,50.72
2022-12-25T10:14:43.888Z,50.62
2022-12-25T10:17:24.292Z,50.25
2022-12-25T10:20:23.390Z,50.91
2022-12-25T10:22:55.948Z,51.15
2022-12-25T10:25:26.407Z,51.03
2022-12-25T10:28:01.037Z,51.18
2022-12-25T10:30:30.846Z,51.24
2022-12-25T10:32:59.872Z,51.26
2022-12-25T10:35:30.498Z,52.06
2022-12-25T10:38:07.514Z,52.29
2022-12-25T10:41:16.648Z,52.64
2022-12-25T10:43:55.023Z,52.49
2022-12-25T10:46:27.901Z,52.52
2022-12-25T10:49:00.195Z,52.77
2022-12-25T10:51:39.468Z,55.15
2022-12-25T10:54:38.797Z,56.04
2022-12-25T10:57:09.847Z,57.60
2022-12-25T10:59:58.562Z,57.85
2022-12-25T11:02:32.824Z,58.49
2022-12-25T11:05:15.205Z,58.51
2022-12-25T11:07:55.115Z,59.20
2022-12-25T11:10:26.461Z,58.91
2022-12-25T11:12:55.622Z,59.75
2022-12-25T11:15:43.974Z,60.31
2022-12-25T11:18:22.242Z,60.40
2022-12-25T11:21:01.950Z,61.32
2022-12-25T11:23:32.575Z,61.32
2022-12-25T11:26:07.182Z,61.29
2022-12-25T11:28:38.234Z,61.65
2022-12-25T11:31:20.261Z,62.46
2022-12-25T11:33:54.788Z,63.29
2022-12-25T11:36:40.218Z,64.32
2022-12-25T11:39:30.611Z,65.58
2022-12-25T11:42:20.300Z,66.07
2022-12-25T11:44:48.570Z,66.00
2022-12-25T11:47:25.015Z,65.52
2022-12-25T11:50:21.357Z,65.92
2022-12-25T11:52:50.754Z,66.29
2022-12-25T11:55:50.417Z,67.01
2022-12-25T11:58:18.684Z,66.93
2022-12-25T12:00:51.255Z,66.84
2022-12-25T12:03:32.110Z,67.25
2022-12-25T12:06:30.001Z,67.54
2022-12-25T12:09:37.363Z,68.72
2022-12-25T12:12:43.098Z,68.72
2022-12-25T12:15:44.929Z,67.48
2022-12-25T12:18:25.333Z,67.82
2022-12-25T12:21:08.566Z,68.13
2022-12-25T12:24:02.856Z,68.34
2022-12-25T12:26:38.949Z,68.21
2022-12-25T12:29:21.988Z,67.93
2022-12-25T12:31:52.310Z,67.23
2022-12-25T12:34:31.997Z,67.23
2022-12-25T12:37:29.225Z,67.31
2022-12-25T12:39:58.680Z,67.13
2022-12-25T12:42:35.309Z,67.27
2022-12-25T12:45:21.854Z,67.09
2022-12-25T12:47:51.771Z,67.30
2022-12-25T12:50:38.731Z,67.25
2022-12-25T12:53:25.639Z,67.09
2022-12-25T12:55:54.151Z,66.50
2022-12-25T12:58:34.483Z,66.44
2022-12-25T13:01:20.421Z,66.41
2022-12-25T13:04:07.348Z,66.45
2022-12-25T13:06:44.980Z,66.63
2022-12-25T13:09:22.869Z,67.64
2022-12-25T13:11:51.698Z,67.65
2022-12-25T13:14:25.806Z,67.56
2022-12-25T13:16:55.967Z,68.44
2022-12-25T13:19:29.780Z,68.37
2022-12-25T13:22:04.248Z,68.61
2022-12-25T13:24:38.189Z,69.35
2022-12-25T13:27:27.652Z,69.47
2022-12-25T13:29:56.243Z,70.29
2022-12-25T13:32:33.745Z,70.02
2022-12-25T13:35:02.465Z,70.83
2022-12-25T13:37:32.561Z,70.13
2022-12-25T13:40:07.709Z,70.46
2022-12-25T13:42:40.750Z,70.69
2022-12-25T13:45:23.312Z,70.36
2022-12-25T13:47:55.400Z,70.09
2022-12-25T13:50:33.161Z,70.17
2022-12-25T13:53:19.037Z,71.68
2022-12-25T13:55:55.858Z,73.13
2022-12-25T13:58:34.866Z,73.91
2022-12-25T14:01:04.444Z,74.64
2022-12-25T14:03:44.117Z,74.56
2022-12-25T14:06:23.124Z,74.68
2022-12-25T14:08:52.228Z,74.79
2022-12-25T14:11:24.165Z,73.81
2022-12-25T14:14:05.219Z,74.56
2022-12-25T14:16:34.897Z,74.47
2022-12-25T14:19:04.517Z,74.88
2022-12-25T14:21:50.210Z,74.61
2022-12-25T14:24:27.254Z,74.72
2022-12-25T14:27:05.048Z,74.89
2022-12-25T14:29:41.168Z,75.89
2022-12-25T14:32:20.177Z,75.87
2022-12-25T14:34:52.342Z,76.31
2022-12-25T14:37:27.569Z,76.84
2022-12-25T14:39:58.517Z,76.78
2022-12-25T14:42:33.092Z,78.11
2022-12-25T14:45:29.252Z,77.33
2022-12-25T14:48:05.111Z,78.09
2022-12-25T14:50:38.287Z,78.21
2022-12-25T14:53:19.411Z,78.44
2022-12-25T14:55:54.003Z,78.48
2022-12-25T14:58:26.837Z,78.69
2022-12-25T15:01:04.329Z,78.55
2022-12-25T15:03:37.797Z,79.33
2022-12-25T15:06:21.452Z,78.72
2022-12-25T15:09:03.249Z,77.94
2022-12-25T15:11:31.804Z,78.39
2022-12-25T15:14:00.211Z,78.29
2022-12-25T15:16:41.903Z,78.23
2022-12-25T15:19:20.572Z,77.52
2022-12-25T15:21:53.539Z,78.29
2022-12-25T15:24:21.851Z,78.60
2022-12-25T15:26:50.163Z,78.72
2022-12-25T15:29:32.163Z,78.17
2022-12-25T15:32:06.791Z,78.63
2022-12-25T15:34:35.102Z,78.75
2022-12-25T15:37:03.409Z,78.89
2022-12-25T15:39:31.877Z,79.46
2022-12-25T15:42:27.597Z,79.12
2022-12-25T15:44:56.024Z,80.23
2022-12-25T15:47:24.346Z,80.99
2022-12-25T15:49:52.693Z,80.08
2022-12-25T15:52:20.979Z,80.14
2022-12-25T15:54:49.283Z,80.26
2022-12-25T15:57:22.334Z,80.30
2022-12-25T15:59:50.639Z,80.23
2022-12-25T16:02:21.656Z,80.00
2022-12-25T16:04:51.920Z,79.54
2022-12-25T16:07:25.894Z,79.34
2022-12-25T16:09:54.401Z,79.62
2022-12-25T16:12:23.160Z,79.56
2022-12-25T16:14:51.516Z,79.71
2022-12-25T16:17:19.945Z,80.19
2022-12-25T16:19:48.395Z,80.47
2022-12-25T16:22:26.536Z,80.79
2022-12-25T16:24:55.035Z,80.16
2022-12-25T16:27:23.479Z,81.22
2022-12-25T16:29:51.783Z,81.63
2022-12-25T16:32:20.077Z,81.80
2022-12-25T16:34:50.263Z,82.58
2022-12-25T16:37:18.566Z,81.43
2022-12-25T16:39:47.237Z,81.24
2022-12-25T16:42:15.625Z,82.52
2022-12-25T16:44:43.996Z,81.96
2022-12-25T16:47:12.317Z,82.39
2022-12-25T16:49:40.703Z,82.66
2022-12-25T16:52:09.036Z,83.91
2022-12-25T16:54:37.392Z,83.38
2022-12-25T16:57:05.757Z,83.34
2022-12-25T16:59:34.130Z,83.46
2022-12-25T17:02:02.578Z,84.59
2022-12-25T17:04:31.050Z,83.49
2022-12-25T17:06:59.341Z,83.29
2022-12-25T17:09:27.675Z,82.89
2022-12-25T17:11:55.960Z,82.71
2022-12-25T17:14:26.142Z,82.32
2022-12-25T17:16:54.488Z,82.41
2022-12-25T17:19:24.851Z,82.21
2022-12-25T17:21:55.678Z,82.19
2022-12-25T17:24:24.126Z,82.67
2022-12-25T17:26:52.459Z,82.64
2022-12-25T17:29:22.591Z,83.20
2022-12-25T17:31:51.783Z,82.77
2022-12-25T17:34:20.528Z,83.60
2022-12-25T17:36:49.094Z,83.90
2022-12-25T17:39:17.420Z,83.73
2022-12-25T17:41:45.961Z,83.63
2022-12-25T17:44:14.258Z,84.01
2022-12-25T17:46:43.059Z,84.02
2022-12-25T17:49:16.506Z,84.04
2022-12-25T17:51:45.329Z,84.26
2022-12-25T17:54:14.248Z,84.14
2022-12-25T17:56:42.536Z,84.42
2022-12-25T17:59:19.144Z,84.30
2022-12-25T18:01:49.146Z,83.97
2022-12-25T18:04:17.770Z,84.89
2022-12-25T18:06:46.205Z,85.75
2022-12-25T18:09:14.763Z,85.51
2022-12-25T18:11:44.532Z,85.23
2022-12-25T18:14:16.986Z,85.45
2022-12-25T18:16:46.767Z,85.08
2022-12-25T18:19:16.691Z,85.07
2022-12-25T18:21:45.213Z,85.27
2022-12-25T18:24:13.751Z,84.89
2022-12-25T18:26:42.199Z,84.82
2022-12-25T18:29:10.526Z,83.61
2022-12-25T18:31:39.002Z,83.83
2022-12-25T18:34:07.350Z,83.54
2022-12-25T18:36:35.688Z,83.42
2022-12-25T18:39:04.091Z,83.45
2022-12-25T18:41:32.385Z,83.75
2022-12-25T18:44:01.261Z,83.88
2022-12-25T18:46:30.021Z,83.67
2022-12-25T18:48:58.640Z,83.44
2022-12-25T18:51:33.091Z,83.31
2022-12-25T18:54:04.983Z,83.04
2022-12-25T18:56:33.694Z,82.89
2022-12-25T18:59:02.024Z,83.57
2022-12-25T19:01:30.560Z,83.11
2022-12-25T19:04:04.739Z,83.05
2022-12-25T19:06:34.442Z,82.75
2022-12-25T19:09:09.909Z,82.66
2022-12-25T19:11:46.622Z,82.93
2022-12-25T19:14:15.565Z,83.77
2022-12-25T19:16:44.197Z,83.55
2022-12-25T19:19:12.928Z,83.70
2022-12-25T19:21:41.819Z,83.33
2022-12-25T19:24:10.173Z,84.10
2022-12-25T19:26:38.637Z,83.70
2022-12-25T19:29:06.990Z,84.20
2022-12-25T19:31:36.095Z,83.58
2022-12-25T19:34:04.710Z,83.96
2022-12-25T19:36:33.404Z,83.75
2022-12-25T19:39:02.018Z,83.67
2022-12-25T19:41:30.336Z,83.20
2022-12-25T19:43:58.625Z,83.07
2022-12-25T19:46:33.319Z,83.91
2022-12-25T19:49:05.161Z,84.07
2022-12-25T19:51:37.004Z,84.74
2022-12-25T19:54:07.386Z,84.67
2022-12-25T19:56:36.558Z,84.46
2022-12-25T19:59:04.900Z,84.79
2022-12-25T20:01:34.301Z,84.63
2022-12-25T20:04:02.931Z,84.61
2022-12-25T20:06:34.371Z,84.79
2022-12-25T20:09:06.030Z,84.97
2022-12-25T20:11:36.239Z,85.16
2022-12-25T20:14:05.968Z,85.37
2022-12-25T20:16:34.553Z,85.95
2022-12-25T20:19:02.948Z,85.88
2022-12-25T20:21:31.245Z,86.11
2022-12-25T20:24:00.493Z,85.10
2022-12-25T20:26:33.012Z,85.13
2022-12-25T20:29:01.381Z,85.65
2022-12-25T20:31:32.557Z,85.69
2022-12-25T20:34:05.784Z,86.77
2022-12-25T20:36:37.565Z,85.44
2022-12-25T20:39:10.458Z,86.86
2022-12-25T20:41:39.600Z,86.70
2022-12-25T20:44:10.970Z,85.29
2022-12-25T20:46:39.471Z,86.10
2022-12-25T20:49:07.930Z,86.64
2022-12-25T20:51:36.529Z,86.92
2022-12-25T20:54:08.727Z,87.51
2022-12-25T20:56:37.895Z,85.76
2022-12-25T20:59:06.188Z,86.46
2022-12-25T21:01:34.621Z,86.08
2022-12-25T21:04:03.134Z,85.65
2022-12-25T21:06:31.459Z,86.08
2022-12-25T21:08:59.823Z,86.32
2022-12-25T21:11:28.269Z,86.09
2022-12-25T21:13:56.615Z,86.29
2022-12-25T21:16:26.179Z,86.67
2022-12-25T21:18:55.554Z,86.73
2022-12-25T21:21:23.949Z,87.42
2022-12-25T21:23:52.544Z,87.04
2022-12-25T21:26:23.964Z,88.67
2022-12-25T21:28:54.947Z,88.70
2022-12-25T21:31:23.809Z,87.35
2022-12-25T21:33:52.610Z,85.36
2022-12-25T21:36:24.819Z,86.46
2022-12-25T21:38:55.426Z,86.02
2022-12-25T21:41:24.553Z,86.50
2022-12-25T21:43:53.311Z,86.25
2022-12-25T21:46:21.893Z,85.87
2022-12-25T21:48:51.076Z,86.86
2022-12-25T21:51:40.483Z,87.08
2022-12-25T21:54:09.561Z,87.58
2022-12-25T21:56:44.170Z,86.97
2022-12-25T21:59:23.362Z,87.47
2022-12-25T22:01:53.501Z,87.48
2022-12-25T22:04:24.128Z,88.62
2022-12-25T22:07:10.583Z,88.80
2022-12-25T22:09:39.604Z,87.96
2022-12-25T22:12:33.524Z,87.99
2022-12-25T22:15:10.428Z,87.79
2022-12-25T22:17:59.144Z,87.72
2022-12-25T22:20:35.445Z,87.79
2022-12-25T22:23:04.949Z,88.29
2022-12-25T22:25:33.300Z,88.68
2022-12-25T22:28:01.665Z,88.06
2022-12-25T22:30:30.955Z,86.63
2022-12-25T22:32:59.656Z,87.63
2022-12-25T22:35:28.052Z,85.35
2022-12-25T22:37:56.463Z,86.67
2022-12-25T22:40:24.760Z,86.57
2022-12-25T22:42:57.535Z,86.17
2022-12-25T22:45:25.936Z,86.53
2022-12-25T22:47:54.290Z,86.85
2022-12-25T22:50:22.697Z,86.39
2022-12-25T22:52:51.035Z,86.80
2022-12-25T22:55:20.428Z,87.10
2022-12-25T22:57:49.900Z,87.34
2022-12-25T23:00:18.282Z,87.28
2022-12-25T23:02:46.830Z,87.43
2022-12-25T23:05:15.346Z,86.92
2022-12-25T23:07:43.696Z,88.13
2022-12-25T23:10:12.212Z,88.08
2022-12-25T23:12:58.755Z,87.97
2022-12-25T23:15:28.520Z,88.00
2022-12-25T23:18:15.324Z,87.34
2022-12-25T23:21:03.769Z,86.64
2022-12-25T23:23:50.362Z,86.14
2022-12-25T23:26:21.165Z,85.92
2022-12-25T23:29:07.810Z,87.24
2022-12-25T23:31:40.956Z,86.50
2022-12-25T23:34:10.794Z,87.67
2022-12-25T23:36:39.126Z,85.47
2022-12-25T23:39:10.498Z,84.78
2022-12-25T23:41:40.596Z,86.55
2022-12-25T23:44:10.737Z,87.71
2022-12-25T23:46:39.544Z,87.88
2022-12-25T23:49:08.972Z,88.40
2022-12-25T23:51:46.768Z,87.78
2022-12-25T23:54:17.791Z,87.55
2022-12-25T23:56:46.571Z,87.80
2022-12-25T23:59:15.424Z,87.48
